Time;durP1;ratioP1;P1;durP2;ratioP2;P2;SDS_P1;SDS_P2;PMS_P1;PMS_P2;Temp;Humidity;BMP_temperature;BMP_pressure;BME280_temperature;BME280_humidity;BME280_pressure;Samples;Min_cycle;Max_cycle;Signal;HPM_P1;HPM_P2
2022/01/11 00:02:20;;;;;;;32.40;18.17;;;4.20;99.90;;;;;;5053373;28;20198;-60
2022/01/11 00:04:47;;;;;;;28.98;18.55;;;4.20;99.90;;;;;;5053266;28;20731;-59
2022/01/11 00:07:16;;;;;;;35.10;18.10;;;4.10;99.90;;;;;;5053461;28;20205;-60
2022/01/11 00:09:45;;;;;;;29.70;17.30;;;4.10;99.90;;;;;;5053367;28;20632;-60
2022/01/11 00:12:12;;;;;;;33.22;17.13;;;4.10;99.90;;;;;;5053497;28;20233;-60
2022/01/11 00:14:39;;;;;;;30.33;18.58;;;4.10;99.90;;;;;;5053659;28;20228;-59
2022/01/11 00:17:08;;;;;;;26.98;18.73;;;4.00;99.90;;;;;;5053348;28;20237;-59
2022/01/11 00:19:35;;;;;;;39.00;19.45;;;4.00;99.90;;;;;;5053566;28;20212;-60
2022/01/11 00:22:07;;;;;;;32.88;19.20;;;3.90;99.90;;;;;;5053369;28;20635;-59
2022/01/11 00:24:35;;;;;;;31.75;17.80;;;3.90;99.90;;;;;;5054857;28;20634;-59
2022/01/11 00:27:04;;;;;;;27.92;18.15;;;3.80;99.90;;;;;;5057169;28;20289;-60
2022/01/11 00:29:32;;;;;;;27.08;17.75;;;3.80;99.90;;;;;;5058509;28;20198;-59
2022/01/11 00:32:04;;;;;;;36.00;19.50;;;3.70;99.90;;;;;;5066241;28;20217;-59
2022/01/11 00:34:46;;;;;;;30.13;17.25;;;3.70;99.90;;;;;;5066697;28;20644;-59
2022/01/11 00:37:13;;;;;;;31.08;18.70;;;3.60;99.90;;;;;;5068539;28;20190;-59
2022/01/11 00:39:42;;;;;;;29.67;19.40;;;3.60;99.90;;;;;;5066482;28;20205;-59
2022/01/11 00:42:09;;;;;;;30.52;18.90;;;3.60;99.90;;;;;;5068650;28;20225;-59
2022/01/11 00:44:36;;;;;;;34.30;18.23;;;3.60;99.90;;;;;;5069113;28;20205;-59
2022/01/11 00:47:04;;;;;;;31.17;19.83;;;3.60;99.90;;;;;;5066208;28;20201;-59
2022/01/11 00:49:34;;;;;;;32.22;19.45;;;3.60;99.90;;;;;;5064750;28;20202;-59
2022/01/11 00:52:01;;;;;;;33.67;19.25;;;3.60;99.90;;;;;;5063438;28;20218;-60
2022/01/11 00:54:28;;;;;;;35.63;20.75;;;3.60;99.90;;;;;;5057841;28;20232;-59
2022/01/11 00:56:55;;;;;;;30.83;19.00;;;3.60;99.90;;;;;;5057456;28;20206;-60
2022/01/11 00:59:22;;;;;;;35.55;20.33;;;3.70;99.90;;;;;;5057050;28;20202;-60
2022/01/11 01:01:50;;;;;;;34.40;19.88;;;3.70;99.90;;;;;;5056676;28;20592;-60
2022/01/11 01:04:17;;;;;;;32.88;19.90;;;3.70;99.90;;;;;;5057299;28;20561;-60
2022/01/11 01:06:46;;;;;;;29.80;20.10;;;3.70;99.90;;;;;;5056652;28;20198;-60
2022/01/11 01:09:13;;;;;;;25.95;18.65;;;3.70;99.90;;;;;;5056470;28;20206;-59
2022/01/11 01:11:43;;;;;;;26.45;19.67;;;3.70;99.90;;;;;;5056138;28;20237;-60
2022/01/11 01:14:10;;;;;;;28.77;19.05;;;3.60;99.90;;;;;;5056571;28;20247;-59
2022/01/11 01:16:38;;;;;;;28.52;18.90;;;3.60;99.90;;;;;;5056619;28;20201;-60
2022/01/11 01:19:05;;;;;;;30.58;19.98;;;3.50;99.90;;;;;;5056228;28;20206;-59
2022/01/11 01:21:37;;;;;;;32.17;18.55;;;3.50;99.90;;;;;;5055999;28;20222;-60
2022/01/11 01:24:08;;;;;;;33.83;18.77;;;3.40;99.90;;;;;;5056375;28;20544;-60
2022/01/11 01:26:36;;;;;;;30.15;19.80;;;3.40;99.90;;;;;;5057208;28;20205;-59
2022/01/11 01:29:03;;;;;;;33.53;19.27;;;3.40;99.90;;;;;;5055903;28;20202;-59
2022/01/11 01:31:30;;;;;;;37.40;19.25;;;3.40;99.90;;;;;;5057328;28;20228;-59
2022/01/11 01:33:58;;;;;;;35.70;20.45;;;3.40;99.90;;;;;;5057700;28;20226;-59
2022/01/11 01:36:26;;;;;;;31.67;17.58;;;3.30;99.90;;;;;;5055939;28;20209;-59
2022/01/11 01:38:53;;;;;;;39.22;20.27;;;3.30;99.90;;;;;;5056020;28;20665;-60
2022/01/11 01:41:22;;;;;;;28.48;18.75;;;3.30;99.90;;;;;;5056028;28;20230;-59
2022/01/11 01:43:51;;;;;;;27.55;19.77;;;3.20;99.90;;;;;;5055934;28;20297;-59
2022/01/11 01:46:19;;;;;;;29.58;18.55;;;3.10;99.90;;;;;;5055932;28;20197;-59
2022/01/11 01:48:46;;;;;;;30.95;19.90;;;3.10;99.90;;;;;;5056026;28;20213;-60
2022/01/11 01:51:14;;;;;;;32.17;19.67;;;3.00;99.90;;;;;;5055904;28;20222;-59
2022/01/11 01:53:44;;;;;;;31.83;18.85;;;2.90;99.90;;;;;;5056246;28;20201;-60
2022/01/11 01:56:11;;;;;;;35.03;19.92;;;2.90;99.90;;;;;;5061754;28;20206;-59
2022/01/11 01:58:42;;;;;;;38.67;20.13;;;2.80;99.90;;;;;;5067452;28;20201;-59
2022/01/11 02:01:12;;;;;;;30.75;19.90;;;2.70;99.90;;;;;;5066644;28;20225;-59
2022/01/11 02:03:40;;;;;;;37.85;20.73;;;2.70;99.90;;;;;;5065043;28;20209;-59
2022/01/11 02:06:08;;;;;;;32.70;19.38;;;2.60;99.90;;;;;;5064408;28;20294;-59
2022/01/11 02:08:36;;;;;;;32.97;19.48;;;2.60;99.90;;;;;;5060588;28;20584;-59
2022/01/11 02:11:03;;;;;;;30.73;19.17;;;2.60;99.90;;;;;;5055994;28;20230;-59
2022/01/11 02:13:30;;;;;;;39.58;21.95;;;2.60;99.90;;;;;;5057067;28;20207;-59
2022/01/11 02:15:59;;;;;;;37.38;20.92;;;2.60;99.90;;;;;;5057606;28;20221;-58
2022/01/11 02:18:27;;;;;;;31.80;21.15;;;2.50;99.90;;;;;;5070856;28;20204;-58
2022/01/11 02:20:58;;;;;;;25.80;18.38;;;2.50;99.90;;;;;;5065736;28;20233;-59
2022/01/11 02:23:28;;;;;;;31.40;19.20;;;2.40;99.90;;;;;;5066972;28;20183;-59
2022/01/11 02:25:55;;;;;;;34.80;20.67;;;2.40;99.90;;;;;;5059385;28;20328;-59
2022/01/11 02:28:24;;;;;;;33.65;20.77;;;2.30;99.90;;;;;;5054613;28;20198;-59
2022/01/11 02:30:53;;;;;;;37.38;20.63;;;2.30;99.90;;;;;;5054560;28;20222;-60
2022/01/11 02:33:32;;;;;;;33.88;21.35;;;2.30;99.90;;;;;;5054818;28;20216;-59
2022/01/11 02:36:02;;;;;;;31.75;19.88;;;2.20;99.90;;;;;;5054476;28;20685;-59
2022/01/11 02:38:29;;;;;;;36.67;20.75;;;2.20;99.90;;;;;;5054988;28;20209;-59
2022/01/11 02:40:57;;;;;;;33.33;20.50;;;2.20;99.90;;;;;;5054990;28;20249;-59
2022/01/11 02:43:24;;;;;;;39.55;19.95;;;2.10;99.90;;;;;;5055043;28;20230;-59
2022/01/11 02:45:51;;;;;;;35.80;20.80;;;2.10;99.90;;;;;;5054678;28;20205;-60
2022/01/11 02:48:19;;;;;;;31.38;20.38;;;2.10;99.90;;;;;;5053830;28;20700;-58
2022/01/11 02:50:46;;;;;;;32.60;21.08;;;2.10;99.90;;;;;;5054207;28;20221;-59
2022/01/11 02:53:15;;;;;;;37.42;21.65;;;2.00;99.90;;;;;;5054866;28;20213;-59
2022/01/11 02:55:43;;;;;;;34.25;22.02;;;2.00;99.90;;;;;;5054331;28;20260;-58
2022/01/11 02:58:10;;;;;;;36.78;21.65;;;1.90;99.90;;;;;;5054340;28;20280;-59
2022/01/11 03:00:39;;;;;;;31.77;20.45;;;1.90;99.90;;;;;;5053923;28;20586;-59
2022/01/11 03:03:11;;;;;;;31.33;21.70;;;1.90;99.90;;;;;;5053930;28;20237;-60
2022/01/11 03:05:38;;;;;;;38.53;21.67;;;1.90;99.90;;;;;;5063370;28;20213;-59
2022/01/11 03:08:05;;;;;;;33.63;20.40;;;1.80;99.90;;;;;;5063745;28;20563;-60
2022/01/11 03:10:34;;;;;;;33.13;21.70;;;1.80;99.90;;;;;;5055626;28;20229;-59
2022/01/11 03:13:02;;;;;;;36.45;21.83;;;1.80;99.90;;;;;;5053770;28;20206;-59
2022/01/11 03:15:29;;;;;;;37.58;21.60;;;1.80;99.90;;;;;;5053569;28;20720;-60
2022/01/11 03:17:56;;;;;;;38.45;21.52;;;1.70;99.90;;;;;;5053859;28;20205;-59
2022/01/11 03:20:24;;;;;;;39.50;22.20;;;1.70;99.90;;;;;;5053846;28;20252;-60
2022/01/11 03:22:51;;;;;;;38.50;21.48;;;1.70;99.90;;;;;;5053703;28;20197;-60
2022/01/11 03:25:18;;;;;;;34.95;21.67;;;1.60;99.90;;;;;;5053610;28;20208;-58
2022/01/11 03:27:47;;;;;;;37.35;21.05;;;1.70;99.90;;;;;;5053800;28;20553;-60
2022/01/11 03:30:14;;;;;;;40.15;21.50;;;1.60;99.90;;;;;;5053660;28;20225;-59
2022/01/11 03:32:41;;;;;;;36.05;23.05;;;1.60;99.90;;;;;;5053858;28;20212;-59
2022/01/11 03:35:10;;;;;;;42.08;23.05;;;1.60;99.90;;;;;;5053623;28;20236;-58
2022/01/11 03:37:38;;;;;;;41.22;21.88;;;1.50;99.90;;;;;;5053447;28;20568;-59
2022/01/11 03:40:08;;;;;;;46.83;25.48;;;1.50;99.90;;;;;;5053597;28;20202;-59
2022/01/11 03:42:35;;;;;;;36.95;23.20;;;1.50;99.90;;;;;;5053406;28;20681;-59
2022/01/11 03:45:05;;;;;;;40.00;23.02;;;1.50;99.90;;;;;;5053662;28;20256;-59
2022/01/11 03:47:32;;;;;;;44.83;25.73;;;1.50;99.90;;;;;;5053560;28;20613;-61
2022/01/11 03:49:59;;;;;;;48.92;24.92;;;1.50;99.90;;;;;;5053099;28;20678;-59
2022/01/11 03:52:26;;;;;;;50.25;23.63;;;1.50;99.90;;;;;;5053103;28;20209;-59
2022/01/11 03:55:04;;;;;;;45.92;25.38;;;1.40;99.90;;;;;;5052952;28;20218;-59
2022/01/11 03:57:32;;;;;;;43.80;25.08;;;1.40;99.90;;;;;;5052988;28;20236;-60
2022/01/11 04:00:01;;;;;;;42.28;22.52;;;1.30;99.90;;;;;;5052843;28;20213;-58
2022/01/11 04:02:29;;;;;;;52.33;24.52;;;1.30;99.90;;;;;;5052829;28;20205;-59
2022/01/11 04:04:57;;;;;;;45.20;24.10;;;1.20;99.90;;;;;;5052980;28;20202;-60
2022/01/11 04:09:11;;;;;;;45.75;25.80;;;1.20;99.90;;;;;;5111747;27;20566;-59
2022/01/11 04:11:38;;;;;;;42.53;23.00;;;1.20;99.90;;;;;;5110928;28;20318;-60
2022/01/11 04:14:06;;;;;;;39.35;24.05;;;1.20;99.90;;;;;;5111389;28;20207;-60
2022/01/11 04:16:33;;;;;;;43.03;24.00;;;1.20;99.90;;;;;;5111711;28;20207;-60
2022/01/11 04:19:00;;;;;;;44.30;24.85;;;1.20;99.90;;;;;;5111541;28;20206;-60
2022/01/11 04:21:27;;;;;;;51.65;25.13;;;1.20;99.90;;;;;;5111676;28;20234;-58
2022/01/11 04:23:55;;;;;;;39.60;24.10;;;1.10;99.90;;;;;;5111566;28;20203;-60
2022/01/11 04:26:23;;;;;;;40.65;23.52;;;1.10;99.90;;;;;;5111483;28;20210;-59
2022/01/11 04:28:50;;;;;;;42.90;25.52;;;1.10;99.90;;;;;;5111093;28;20224;-59
2022/01/11 04:31:17;;;;;;;47.72;24.95;;;1.10;99.90;;;;;;5113190;28;20262;-58
2022/01/11 04:33:45;;;;;;;47.13;24.88;;;1.00;99.90;;;;;;5114890;28;20202;-58
2022/01/11 04:36:13;;;;;;;57.50;26.08;;;1.00;99.90;;;;;;5112101;28;20286;-59
2022/01/11 04:38:41;;;;;;;55.22;24.80;;;1.00;99.90;;;;;;5110621;28;20200;-59
2022/01/11 04:41:08;;;;;;;49.67;25.25;;;1.00;99.90;;;;;;5110220;28;20223;-59
2022/01/11 04:43:36;;;;;;;58.90;23.90;;;1.00;99.90;;;;;;5110237;28;20724;-60
2022/01/11 04:46:04;;;;;;;45.22;27.38;;;0.90;99.90;;;;;;5110742;28;20200;-59
2022/01/11 04:48:32;;;;;;;44.50;26.05;;;1.00;99.90;;;;;;5110335;28;20226;-59
2022/01/11 04:51:00;;;;;;;50.17;27.40;;;0.90;99.90;;;;;;5110211;28;20216;-60
2022/01/11 04:53:28;;;;;;;50.67;25.52;;;0.90;99.90;;;;;;5110487;28;20234;-59
2022/01/11 04:55:55;;;;;;;43.20;26.48;;;0.90;99.90;;;;;;5110074;28;20709;-60
2022/01/11 04:58:22;;;;;;;48.35;28.20;;;1.00;99.90;;;;;;5110020;28;20192;-59
2022/01/11 05:00:51;;;;;;;50.67;27.58;;;0.90;99.90;;;;;;5110090;28;20222;-59
2022/01/11 05:03:19;;;;;;;43.08;25.70;;;0.90;99.90;;;;;;5112384;28;20207;-58
2022/01/11 05:05:47;;;;;;;47.10;25.80;;;0.90;99.90;;;;;;5116803;28;20196;-58
2022/01/11 05:08:14;;;;;;;57.20;28.85;;;0.90;99.90;;;;;;5131474;28;20222;-57
2022/01/11 05:10:42;;;;;;;46.90;28.50;;;0.90;99.90;;;;;;5147170;28;20231;-59
2022/01/11 05:13:11;;;;;;;48.40;26.08;;;0.90;99.90;;;;;;5118163;23;20229;-53
2022/01/11 05:15:38;;;;;;;73.25;30.10;;;1.00;99.90;;;;;;5068982;28;20197;-53
2022/01/11 05:18:07;;;;;;;64.80;29.48;;;1.00;99.90;;;;;;5068868;28;20551;-54
2022/01/11 05:20:34;;;;;;;66.57;29.23;;;1.00;99.90;;;;;;5055318;28;20209;-54
2022/01/11 05:23:01;;;;;;;61.95;27.45;;;1.00;99.90;;;;;;5066839;28;20239;-54
2022/01/11 05:25:28;;;;;;;67.63;31.05;;;1.00;99.90;;;;;;5075520;28;20211;-54
2022/01/11 05:27:55;;;;;;;79.47;30.58;;;1.00;99.90;;;;;;5075331;28;20614;-53
2022/01/11 05:30:23;;;;;;;57.30;29.10;;;1.00;99.90;;;;;;5075692;28;20200;-54
2022/01/11 05:32:50;;;;;;;59.03;29.45;;;1.10;99.90;;;;;;5075332;28;20221;-54
2022/01/11 05:35:21;;;;;;;64.65;29.92;;;1.10;99.90;;;;;;5075393;28;20699;-54
2022/01/11 05:37:49;;;;;;;66.60;28.58;;;1.10;99.90;;;;;;5075485;28;20181;-53
2022/01/11 05:40:17;;;;;;;76.93;30.25;;;1.10;99.90;;;;;;5075240;28;20576;-53
2022/01/11 05:42:45;;;;;;;62.22;28.02;;;1.10;99.90;;;;;;5075319;28;20602;-53
2022/01/11 05:45:14;;;;;;;53.50;26.50;;;1.10;99.90;;;;;;5076162;28;20216;-53
2022/01/11 05:47:41;;;;;;;55.42;27.13;;;1.10;99.90;;;;;;5074928;28;20709;-53
2022/01/11 05:50:11;;;;;;;52.97;26.63;;;1.10;99.90;;;;;;5075435;28;20204;-53
2022/01/11 05:52:40;;;;;;;134.07;32.67;;;1.10;99.90;;;;;;5074920;28;20217;-54
2022/01/11 05:55:10;;;;;;;63.90;28.48;;;1.10;99.90;;;;;;5075332;28;20205;-54
2022/01/11 05:57:37;;;;;;;53.03;26.00;;;1.20;99.90;;;;;;5074864;28;20259;-54
2022/01/11 06:00:05;;;;;;;80.45;27.85;;;1.20;99.90;;;;;;5075067;28;20201;-54
2022/01/11 06:02:32;;;;;;;84.40;27.58;;;1.20;99.90;;;;;;5074762;28;20220;-53
2022/01/11 06:04:59;;;;;;;62.60;28.15;;;1.20;99.90;;;;;;5075223;28;20201;-52
2022/01/11 06:07:26;;;;;;;74.82;26.58;;;1.20;99.90;;;;;;5075065;28;20228;-52
2022/01/11 06:09:55;;;;;;;52.45;27.17;;;1.20;99.90;;;;;;5075258;28;20205;-52
2022/01/11 06:12:22;;;;;;;51.80;26.17;;;1.20;99.90;;;;;;5074730;28;20233;-53
2022/01/11 06:14:49;;;;;;;53.88;27.77;;;1.10;99.90;;;;;;5075118;28;20209;-53
2022/01/11 06:17:16;;;;;;;57.45;30.17;;;1.10;99.90;;;;;;5074947;28;20213;-53
2022/01/11 06:19:43;;;;;;;47.15;26.45;;;1.00;99.90;;;;;;5074421;28;20574;-53
2022/01/11 06:22:10;;;;;;;50.22;27.65;;;1.10;99.90;;;;;;5074771;28;20227;-54
2022/01/11 06:24:37;;;;;;;57.17;28.10;;;1.10;99.90;;;;;;5074806;28;20209;-54
2022/01/11 06:27:06;;;;;;;55.58;27.42;;;1.10;99.90;;;;;;5074701;28;20208;-53
2022/01/11 06:29:33;;;;;;;54.13;27.23;;;1.10;99.90;;;;;;5074461;28;20708;-52
2022/01/11 06:32:00;;;;;;;64.85;27.15;;;1.20;99.90;;;;;;5073362;28;20668;-53
2022/01/11 06:34:27;;;;;;;49.47;27.13;;;1.20;99.90;;;;;;5074949;28;20207;-53
2022/01/11 06:36:54;;;;;;;51.33;28.25;;;1.20;99.90;;;;;;5074511;28;20201;-53
2022/01/11 06:39:21;;;;;;;48.28;24.58;;;1.20;99.90;;;;;;5074571;28;20197;-53
2022/01/11 06:41:48;;;;;;;47.50;26.30;;;1.30;99.90;;;;;;5074612;28;20205;-54
2022/01/11 06:44:17;;;;;;;42.38;26.02;;;1.30;99.90;;;;;;5074069;28;20205;-53
2022/01/11 06:46:44;;;;;;;50.03;26.95;;;1.30;99.90;;;;;;5074428;28;20201;-54
2022/01/11 06:49:11;;;;;;;49.00;26.65;;;1.40;99.90;;;;;;5074103;28;20225;-54
2022/01/11 06:51:38;;;;;;;67.45;26.27;;;1.40;99.90;;;;;;5074097;28;20228;-54
2022/01/11 06:54:05;;;;;;;56.38;26.98;;;1.50;99.90;;;;;;5073863;28;20734;-52
2022/01/11 06:56:32;;;;;;;46.78;25.35;;;1.50;99.90;;;;;;5074475;28;20275;-54
2022/01/11 06:58:59;;;;;;;68.78;26.27;;;1.40;99.90;;;;;;5074238;28;20193;-55
2022/01/11 07:01:29;;;;;;;131.57;29.25;;;1.50;99.90;;;;;;5073999;28;20284;-55
2022/01/11 07:03:56;;;;;;;318.05;43.30;;;1.50;99.90;;;;;;5073738;28;20286;-54
2022/01/11 07:06:23;;;;;;;84.60;27.35;;;1.60;99.90;;;;;;5073724;28;20205;-55
2022/01/11 07:08:50;;;;;;;107.93;29.85;;;1.60;99.90;;;;;;5073306;28;20719;-54
2022/01/11 07:11:18;;;;;;;92.60;29.67;;;1.60;99.90;;;;;;5073961;28;20212;-54
2022/01/11 07:13:45;;;;;;;72.00;31.42;;;1.70;99.90;;;;;;5073350;28;20307;-54
2022/01/11 07:16:12;;;;;;;87.15;31.05;;;1.70;99.90;;;;;;5073647;28;20382;-54
2022/01/11 07:18:41;;;;;;;65.45;28.95;;;1.80;99.90;;;;;;5074012;28;20193;-54
2022/01/11 07:21:08;;;;;;;72.32;32.35;;;1.80;99.90;;;;;;5073728;28;20200;-54
2022/01/11 07:23:35;;;;;;;74.63;30.50;;;1.90;99.90;;;;;;5073939;28;20232;-54
2022/01/11 07:26:02;;;;;;;69.50;31.30;;;1.90;99.90;;;;;;5073235;28;20201;-54
2022/01/11 07:28:31;;;;;;;64.32;30.55;;;2.00;99.90;;;;;;5073269;28;20248;-54
2022/01/11 07:30:58;;;;;;;65.45;29.05;;;2.00;99.90;;;;;;5073516;28;20201;-55
2022/01/11 07:33:25;;;;;;;62.17;30.60;;;2.10;99.90;;;;;;5073103;28;20229;-54
2022/01/11 07:35:54;;;;;;;58.92;29.23;;;2.10;99.90;;;;;;5073168;28;20228;-54
2022/01/11 07:38:21;;;;;;;74.35;31.95;;;2.20;99.90;;;;;;5073218;28;20212;-54
2022/01/11 07:40:48;;;;;;;64.25;32.03;;;2.20;99.90;;;;;;5073165;28;20197;-54
2022/01/11 07:43:15;;;;;;;77.82;31.10;;;2.30;99.90;;;;;;5073086;28;20221;-54
2022/01/11 07:45:42;;;;;;;128.43;34.63;;;2.30;99.90;;;;;;5072780;28;20204;-54
2022/01/11 07:48:09;;;;;;;85.88;31.48;;;2.30;99.90;;;;;;5072570;28;20704;-54
2022/01/11 07:50:36;;;;;;;94.85;31.85;;;2.40;99.90;;;;;;5072901;28;20212;-54
2022/01/11 07:53:05;;;;;;;138.18;37.47;;;2.40;99.90;;;;;;5072733;28;20691;-54
2022/01/11 07:55:32;;;;;;;101.93;31.15;;;2.40;99.90;;;;;;5072837;28;20205;-55
2022/01/11 07:57:59;;;;;;;119.93;32.25;;;2.50;99.90;;;;;;5072621;28;20550;-55
2022/01/11 08:00:26;;;;;;;205.48;35.38;;;2.50;99.90;;;;;;5073084;28;20205;-55
2022/01/11 08:02:53;;;;;;;81.53;30.30;;;2.60;99.90;;;;;;5072503;28;20228;-54
2022/01/11 08:05:21;;;;;;;111.15;32.83;;;2.60;99.90;;;;;;5073003;28;20208;-54
2022/01/11 08:07:48;;;;;;;189.60;32.92;;;2.70;99.90;;;;;;5073006;28;20201;-54
2022/01/11 08:10:18;;;;;;;119.28;27.42;;;2.70;99.90;;;;;;5073191;28;20221;-54
2022/01/11 08:12:46;;;;;;;92.15;26.77;;;2.70;99.90;;;;;;5072394;28;20228;-54
2022/01/11 08:15:13;;;;;;;109.68;27.10;;;2.70;99.90;;;;;;5073543;28;20201;-53
2022/01/11 08:17:41;;;;;;;159.52;34.00;;;2.80;99.90;;;;;;5073068;28;20227;-53
2022/01/11 08:20:09;;;;;;;82.32;27.23;;;2.80;99.90;;;;;;5072917;28;20204;-54
2022/01/11 08:22:36;;;;;;;92.13;29.65;;;2.80;99.90;;;;;;5072452;28;20221;-54
2022/01/11 08:25:04;;;;;;;75.60;29.25;;;2.80;99.90;;;;;;5072493;28;20212;-55
2022/01/11 08:27:33;;;;;;;98.78;28.00;;;2.90;99.90;;;;;;5072310;28;20204;-54
2022/01/11 08:30:00;;;;;;;88.30;27.05;;;2.90;99.90;;;;;;5072155;28;20228;-54
2022/01/11 08:32:28;;;;;;;85.07;26.45;;;2.90;99.90;;;;;;5072299;28;20221;-55
2022/01/11 08:34:55;;;;;;;73.05;26.23;;;2.90;99.90;;;;;;5072078;28;20205;-53
2022/01/11 08:37:22;;;;;;;97.38;25.33;;;2.90;99.90;;;;;;5073312;28;20209;-53
2022/01/11 08:39:49;;;;;;;75.10;24.67;;;2.90;99.90;;;;;;5073659;28;20565;-55
2022/01/11 08:42:16;;;;;;;81.55;27.25;;;3.00;99.90;;;;;;5073197;28;20221;-55
2022/01/11 08:44:47;;;;;;;162.32;30.83;;;3.00;99.90;;;;;;5073888;28;20287;-55
2022/01/11 08:47:14;;;;;;;94.97;25.73;;;3.00;99.90;;;;;;5073280;28;20182;-54
2022/01/11 08:49:41;;;;;;;108.80;27.25;;;3.00;99.90;;;;;;5073399;28;20227;-54
2022/01/11 08:52:09;;;;;;;140.93;27.05;;;3.00;99.90;;;;;;5073518;28;20227;-54
2022/01/11 08:54:36;;;;;;;135.25;29.23;;;3.10;99.90;;;;;;5075617;28;20201;-54
2022/01/11 08:57:04;;;;;;;182.93;32.28;;;3.10;99.90;;;;;;5077055;28;20228;-54
2022/01/11 08:59:32;;;;;;;78.90;25.17;;;3.20;99.90;;;;;;5076404;28;20200;-54
2022/01/11 09:02:02;;;;;;;99.35;26.83;;;3.20;99.90;;;;;;5076405;28;20603;-54
2022/01/11 09:04:29;;;;;;;93.20;27.02;;;3.20;99.90;;;;;;5076595;28;20571;-54
2022/01/11 09:06:57;;;;;;;100.75;26.25;;;3.30;99.90;;;;;;5076723;28;20300;-54
2022/01/11 09:09:25;;;;;;;75.60;27.00;;;3.40;99.90;;;;;;5076236;28;20221;-54
2022/01/11 09:11:52;;;;;;;68.25;24.77;;;3.40;99.90;;;;;;5075804;28;20606;-54
2022/01/11 09:14:19;;;;;;;76.78;25.83;;;3.50;99.90;;;;;;5076584;28;20221;-54
2022/01/11 09:16:47;;;;;;;74.13;26.90;;;3.60;99.90;;;;;;5075547;28;20200;-54
2022/01/11 09:19:16;;;;;;;69.57;26.42;;;3.60;99.90;;;;;;5075493;28;20197;-54
2022/01/11 09:21:44;;;;;;;108.72;27.20;;;3.70;99.90;;;;;;5075715;28;20205;-55
2022/01/11 09:24:11;;;;;;;75.95;25.75;;;3.70;99.90;;;;;;5075418;28;20204;-54
2022/01/11 09:26:39;;;;;;;79.50;28.33;;;3.70;99.90;;;;;;5075774;28;20212;-54
2022/01/11 09:29:06;;;;;;;59.05;25.45;;;3.70;99.90;;;;;;5075279;28;20217;-54
2022/01/11 09:31:33;;;;;;;60.25;23.83;;;3.70;99.90;;;;;;5075322;28;20201;-54
2022/01/11 09:34:00;;;;;;;46.17;22.80;;;3.80;99.90;;;;;;5075594;28;20619;-54
2022/01/11 09:36:29;;;;;;;72.97;23.95;;;3.80;99.90;;;;;;5075498;28;20205;-54
2022/01/11 09:38:57;;;;;;;72.40;25.27;;;3.80;99.90;;;;;;5075314;28;20201;-55
2022/01/11 09:41:24;;;;;;;61.30;22.70;;;3.80;99.90;;;;;;5074920;28;20696;-54
2022/01/11 09:43:51;;;;;;;59.08;23.08;;;3.70;99.90;;;;;;5075152;28;20236;-54
2022/01/11 09:46:19;;;;;;;42.67;22.42;;;3.80;99.90;;;;;;5075301;28;20201;-54
2022/01/11 09:48:48;;;;;;;42.67;23.50;;;3.80;99.90;;;;;;5074941;28;20201;-54
2022/01/11 09:51:16;;;;;;;51.17;24.08;;;3.80;99.90;;;;;;5075105;28;20208;-54
2022/01/11 09:53:46;;;;;;;43.95;22.73;;;3.90;99.90;;;;;;5075053;28;20236;-54
2022/01/11 09:56:14;;;;;;;40.92;23.88;;;4.00;99.90;;;;;;5074704;28;20633;-54
2022/01/11 09:58:42;;;;;;;33.13;20.65;;;4.10;99.90;;;;;;5074607;28;20229;-54
2022/01/11 10:01:09;;;;;;;44.60;21.90;;;4.20;99.90;;;;;;5074371;28;20200;-54
2022/01/11 10:03:57;;;;;;;35.88;20.55;;;4.20;99.90;;;;;;5074317;28;20224;-54
2022/01/11 10:06:25;;;;;;;38.13;21.00;;;4.30;99.90;;;;;;5074604;28;20556;-54
2022/01/11 10:09:09;;;;;;;35.38;21.05;;;4.30;99.90;;;;;;5074349;28;20201;-54
2022/01/11 10:11:36;;;;;;;34.92;18.33;;;4.30;99.90;;;;;;5074585;28;20509;-54
2022/01/11 10:14:23;;;;;;;37.20;19.58;;;4.40;99.90;;;;;;5074279;28;20236;-54
2022/01/11 10:16:51;;;;;;;36.65;19.02;;;4.40;99.90;;;;;;5074138;28;20641;-54
2022/01/11 10:19:25;;;;;;;37.90;19.63;;;4.50;99.90;;;;;;5074151;28;20204;-55
2022/01/11 10:21:54;;;;;;;33.42;19.98;;;4.50;99.90;;;;;;5074454;28;20184;-54
2022/01/11 10:24:26;;;;;;;33.08;19.73;;;4.50;99.90;;;;;;5074968;28;20201;-54
2022/01/11 10:26:56;;;;;;;33.50;18.27;;;4.50;99.90;;;;;;5076749;28;20196;-54
2022/01/11 10:29:26;;;;;;;32.20;19.20;;;4.50;99.90;;;;;;5076130;28;20229;-54
2022/01/11 10:31:54;;;;;;;32.45;18.60;;;4.60;99.90;;;;;;5074527;28;20224;-54
2022/01/11 10:34:29;;;;;;;33.70;19.90;;;4.60;99.90;;;;;;5074643;28;20213;-54
2022/01/11 10:36:57;;;;;;;30.42;17.00;;;4.60;99.90;;;;;;5073793;28;20208;-53
2022/01/11 10:39:32;;;;;;;28.25;17.70;;;4.70;99.90;;;;;;5074194;28;20572;-54
2022/01/11 10:42:00;;;;;;;45.55;19.75;;;4.70;99.90;;;;;;5073802;28;20263;-55
2022/01/11 10:44:52;;;;;;;31.80;19.80;;;4.80;99.90;;;;;;5074241;28;20208;-54
2022/01/11 10:47:22;;;;;;;37.63;18.08;;;4.80;99.90;;;;;;5073919;28;20633;-55
2022/01/11 10:50:01;;;;;;;51.65;20.05;;;4.90;99.90;;;;;;5074106;28;20205;-54
2022/01/11 10:52:31;;;;;;;39.05;18.38;;;4.90;99.90;;;;;;5073557;28;20233;-54
2022/01/11 10:55:02;;;;;;;33.33;18.23;;;5.00;99.90;;;;;;5073913;28;20181;-54
2022/01/11 10:57:31;;;;;;;37.58;19.65;;;4.90;99.90;;;;;;5073706;28;20185;-54
2022/01/11 11:00:23;;;;;;;31.13;18.55;;;4.90;99.90;;;;;;5073722;28;20553;-54
2022/01/11 11:03:00;;;;;;;32.85;18.02;;;4.90;99.90;;;;;;5073720;28;20245;-54
2022/01/11 11:05:31;;;;;;;34.03;17.17;;;4.90;99.90;;;;;;5073933;28;20189;-55
2022/01/11 11:08:04;;;;;;;29.60;19.95;;;4.90;99.90;;;;;;5074522;28;20185;-55
2022/01/11 11:10:39;;;;;;;28.65;18.30;;;4.90;99.90;;;;;;5073734;28;20212;-55
2022/01/11 11:13:07;;;;;;;27.60;17.80;;;5.00;99.90;;;;;;5069312;23;20237;-55
2022/01/11 11:15:36;;;;;;;27.10;17.80;;;5.20;99.90;;;;;;5014698;28;20671;-55
2022/01/11 11:18:06;;;;;;;31.77;18.08;;;5.30;99.90;;;;;;5014123;28;20215;-56
2022/01/11 11:20:34;;;;;;;29.08;17.65;;;5.30;99.90;;;;;;5014242;28;20202;-55
2022/01/11 11:23:04;;;;;;;33.97;17.23;;;5.40;99.90;;;;;;5013854;28;20230;-56
2022/01/11 11:25:32;;;;;;;30.52;18.58;;;5.30;99.90;;;;;;5014724;28;20214;-55
2022/01/11 11:27:59;;;;;;;27.42;17.83;;;5.40;99.90;;;;;;5014608;28;20207;-57
2022/01/11 11:30:26;;;;;;;21.80;14.90;;;5.50;99.90;;;;;;5013481;28;20702;-54
2022/01/11 11:32:54;;;;;;;30.67;17.98;;;5.50;99.90;;;;;;5013774;28;20234;-56
2022/01/11 11:35:22;;;;;;;26.67;18.17;;;5.40;99.90;;;;;;5014112;28;20277;-56
2022/01/11 11:37:54;;;;;;;30.20;19.52;;;5.20;99.90;;;;;;5013718;28;20568;-54
2022/01/11 11:40:24;;;;;;;26.23;17.50;;;5.20;99.90;;;;;;5013584;28;20183;-55
2022/01/11 11:42:57;;;;;;;31.55;18.10;;;5.40;99.90;;;;;;5013803;28;20226;-55
2022/01/11 11:45:27;;;;;;;31.55;17.75;;;5.50;99.90;;;;;;5014953;28;20195;-54
2022/01/11 11:48:04;;;;;;;36.65;20.02;;;5.50;99.90;;;;;;5013723;28;20214;-55
2022/01/11 11:50:31;;;;;;;38.05;19.90;;;5.50;99.90;;;;;;5013531;28;20206;-59
2022/01/11 11:52:58;;;;;;;29.95;18.13;;;5.60;99.90;;;;;;5013387;28;20230;-58
2022/01/11 11:55:28;;;;;;;34.65;20.05;;;5.60;99.90;;;;;;5013915;28;20302;-57
2022/01/11 11:58:00;;;;;;;25.90;16.90;;;5.70;99.90;;;;;;5013479;28;20215;-59
2022/01/11 12:00:29;;;;;;;31.05;18.40;;;5.70;99.90;;;;;;5013251;28;20179;-58
2022/01/11 12:02:58;;;;;;;30.23;16.30;;;5.70;99.90;;;;;;5014773;28;20234;-58
2022/01/11 12:05:39;;;;;;;25.30;17.05;;;5.80;99.90;;;;;;5013797;28;20199;-59
2022/01/11 12:08:28;;;;;;;30.90;18.25;;;5.90;99.90;;;;;;5014660;28;20198;-61
2022/01/11 12:10:57;;;;;;;28.63;18.60;;;6.00;99.90;;;;;;5013747;28;20207;-59
2022/01/11 12:13:47;;;;;;;25.15;16.92;;;6.20;99.90;;;;;;5022096;28;20237;-59
2022/01/11 12:16:50;;;;;;;26.58;16.45;;;6.20;99.90;;;;;;5033321;28;20195;-58
2022/01/11 12:19:45;;;;;;;28.17;16.15;;;6.20;99.90;;;;;;5033282;28;20186;-57
2022/01/11 12:22:22;;;;;;;23.42;16.38;;;6.20;99.90;;;;;;5025596;28;20202;-59
2022/01/11 12:24:51;;;;;;;25.65;18.13;;;6.10;99.90;;;;;;5033176;28;20272;-58
2022/01/11 12:27:21;;;;;;;22.45;15.68;;;6.10;99.90;;;;;;5033042;28;20279;-57
2022/01/11 12:30:05;;;;;;;23.08;15.20;;;6.00;99.90;;;;;;5035125;28;20638;-58
2022/01/11 12:32:35;;;;;;;24.60;16.92;;;5.80;99.90;;;;;;5037125;28;20233;-58
2022/01/11 12:35:11;;;;;;;23.15;15.70;;;5.80;99.90;;;;;;5037268;28;20210;-58
2022/01/11 12:37:42;;;;;;;25.60;16.73;;;5.70;99.90;;;;;;5036901;28;20187;-58
2022/01/11 12:40:25;;;;;;;24.75;16.65;;;5.70;99.90;;;;;;5036659;28;20187;-58
2022/01/11 12:42:57;;;;;;;24.13;16.40;;;5.70;99.90;;;;;;5036507;28;20332;-59
2022/01/11 12:46:01;;;;;;;27.70;16.75;;;5.70;99.90;;;;;;5037623;28;20241;-59
2022/01/11 12:48:57;;;;;;;27.92;16.50;;;5.80;99.90;;;;;;5036385;28;20693;-59